createdAt,value
2016-06-05T00:00:15.227Z,15.05
2016-06-05T00:01:15.245Z,15.02
2016-06-05T00:02:15.248Z,15.04
2016-06-05T00:03:15.235Z,15.05
2016-06-05T00:04:15.222Z,15.05
2016-06-05T00:05:15.241Z,14.94
2016-06-05T00:06:15.244Z,15
2016-06-05T00:07:15.246Z,14.97
2016-06-05T00:08:15.295Z,15.05
2016-06-05T00:09:15.236Z,14.97
2016-06-05T00:10:15.238Z,15.07
2016-06-05T00:11:15.241Z,14.97
2016-06-05T00:12:15.244Z,15
2016-06-05T00:13:15.247Z,15.1
2016-06-05T00:14:15.249Z,15
2016-06-05T00:15:15.235Z,15.02
2016-06-05T00:16:15.238Z,14.92
2016-06-05T00:17:15.241Z,14.99
2016-06-05T00:18:15.244Z,15.02
2016-06-05T00:19:15.263Z,15.02
2016-06-05T00:20:15.249Z,15
2016-06-05T00:21:15.252Z,15.07
2016-06-05T00:22:15.240Z,15.05
2016-06-05T00:23:15.257Z,15.07
2016-06-05T00:24:15.260Z,15.11
2016-06-05T00:25:15.263Z,15.04
2016-06-05T00:26:15.266Z,15.07
2016-06-05T00:27:15.253Z,15.11
2016-06-05T00:28:15.459Z,15.04
2016-06-05T00:29:15.258Z,14.99
2016-06-05T00:30:15.261Z,14.96
2016-06-05T00:31:15.264Z,14.99
2016-06-05T00:32:15.266Z,14.87
2016-06-05T00:33:15.284Z,14.96
2016-06-05T00:34:15.256Z,14.86
2016-06-05T00:35:15.102Z,14.97
2016-06-05T00:36:15.261Z,14.9
2016-06-05T00:37:15.264Z,14.97
2016-06-05T00:38:15.267Z,14.97
2016-06-05T00:39:15.285Z,14.96
2016-06-05T00:40:15.272Z,14.94
2016-06-05T00:41:15.260Z,14.99
2016-06-05T00:42:15.294Z,14.93
2016-06-05T00:43:15.765Z,14.94
2016-06-05T00:44:15.282Z,15.07
2016-06-05T00:45:15.271Z,14.99
2016-06-05T00:46:15.273Z,15.04
2016-06-05T00:47:15.275Z,15.05
2016-06-05T00:48:15.278Z,14.99
2016-06-05T00:49:15.281Z,15.05
2016-06-05T00:50:15.284Z,15.04
2016-06-05T00:51:15.287Z,14.99
2016-06-05T00:52:15.273Z,15.07
2016-06-05T00:53:15.292Z,15.07
2016-06-05T00:54:15.279Z,15.05
2016-06-05T00:55:15.281Z,15.1
2016-06-05T00:56:15.284Z,14.97
2016-06-05T00:57:15.287Z,15.1
2016-06-05T00:58:15.290Z,15.12
2016-06-05T00:59:15.136Z,15.1
2016-06-05T01:00:15.279Z,15.07
2016-06-05T01:01:15.282Z,15.05
2016-06-05T01:02:15.284Z,15.07
2016-06-05T01:03:15.302Z,15.07
2016-06-05T01:04:15.290Z,15.05
2016-06-05T01:05:15.292Z,15.05
2016-06-05T01:06:15.280Z,15.07
2016-06-05T01:07:15.283Z,14.97
2016-06-05T01:08:15.285Z,15
2016-06-05T01:09:15.288Z,15.04
2016-06-05T01:10:15.134Z,14.94
2016-06-05T01:11:15.294Z,14.93
2016-06-05T01:12:15.296Z,14.96
2016-06-05T01:13:15.299Z,14.86
2016-06-05T01:14:15.285Z,14.92
2016-06-05T01:15:15.304Z,14.92
2016-06-05T01:16:15.291Z,14.79
2016-06-05T01:17:15.293Z,14.73
2016-06-05T01:18:15.296Z,14.85
2016-06-05T01:19:15.299Z,14.79
2016-06-05T01:20:15.286Z,14.87
2016-06-05T01:21:15.305Z,14.79
2016-06-05T01:22:15.291Z,14.86
2016-06-05T01:23:15.310Z,14.82
2016-06-05T01:24:15.312Z,14.86
2016-06-05T01:25:15.299Z,14.82
2016-06-05T01:26:15.302Z,14.87
2016-06-05T01:27:15.304Z,14.9
2016-06-05T01:28:15.807Z,14.93
2016-06-05T01:29:15.310Z,14.99
2016-06-05T01:30:15.312Z,14.96
2016-06-05T01:31:15.316Z,14.97
2016-06-05T01:32:15.303Z,15
2016-06-05T01:33:15.305Z,15
2016-06-05T01:34:15.167Z,15.02
2016-06-05T01:35:15.311Z,14.99
2016-06-05T01:36:15.314Z,14.93
2016-06-05T01:37:15.161Z,15.02
2016-06-05T01:38:15.319Z,14.89
2016-06-05T01:39:15.305Z,15.02
2016-06-05T01:40:15.325Z,14.92
2016-06-05T01:41:15.327Z,14.9
2016-06-05T01:42:15.314Z,14.96
2016-06-05T01:43:15.364Z,14.89
2016-06-05T01:44:15.320Z,14.92
2016-06-05T01:45:15.322Z,15
2016-06-05T01:46:15.324Z,15.02
2016-06-05T01:47:15.327Z,14.99
2016-06-05T01:48:15.330Z,14.96
2016-06-05T01:49:15.317Z,15.08
2016-06-05T01:50:15.321Z,14.99
2016-06-05T01:51:15.338Z,14.92
2016-06-05T01:52:15.326Z,15.05
2016-06-05T01:53:15.328Z,14.99
2016-06-05T01:54:15.331Z,15
2016-06-05T01:55:15.318Z,15.05
2016-06-05T01:56:15.321Z,15.02
2016-06-05T01:57:15.323Z,15
2016-06-05T01:58:15.528Z,14.97
2016-06-05T01:59:15.172Z,14.94
2016-06-05T02:00:15.488Z,14.99
2016-06-05T02:01:15.334Z,14.93
2016-06-05T02:02:15.337Z,14.97
2016-06-05T02:03:15.356Z,14.97
2016-06-05T02:04:15.326Z,14.81
2016-06-05T02:05:15.329Z,14.86
2016-06-05T02:06:15.331Z,14.78
2016-06-05T02:07:15.334Z,14.79
2016-06-05T02:08:15.494Z,14.68
2016-06-05T02:09:15.324Z,14.68
2016-06-05T02:10:15.342Z,14.62
2016-06-05T02:11:15.345Z,14.59
2016-06-05T02:12:15.348Z,14.45
2016-06-05T02:13:15.460Z,14.56
2016-06-05T02:14:15.338Z,14.49
2016-06-05T02:15:15.340Z,14.48
2016-06-05T02:16:15.343Z,14.45
2016-06-05T02:17:15.346Z,14.48
2016-06-05T02:18:15.348Z,14.48
2016-06-05T02:19:15.351Z,14.59
2016-06-05T02:20:15.197Z,14.52
2016-06-05T02:21:15.357Z,14.58
2016-06-05T02:22:15.343Z,14.61
2016-06-05T02:23:15.346Z,14.49
2016-06-05T02:24:15.364Z,14.63
2016-06-05T02:25:15.351Z,14.59
2016-06-05T02:26:15.355Z,14.55
2016-06-05T02:27:15.341Z,14.67
2016-06-05T02:28:15.859Z,14.67
2016-06-05T02:29:15.346Z,14.63
2016-06-05T02:30:15.349Z,14.66
2016-06-05T02:31:15.352Z,14.73
2016-06-05T02:32:15.354Z,14.66
2016-06-05T02:33:15.217Z,14.7
2016-06-05T02:34:15.360Z,14.63
2016-06-05T02:35:15.362Z,14.74
2016-06-05T02:36:15.365Z,14.77
2016-06-05T02:37:15.368Z,14.85
2016-06-05T02:38:15.356Z,14.74
2016-06-05T02:39:15.358Z,14.82
2016-06-05T02:40:15.360Z,14.77
2016-06-05T02:41:15.364Z,14.82
2016-06-05T02:42:15.366Z,14.82
2016-06-05T02:43:16.071Z,14.89
2016-06-05T02:44:15.216Z,14.87
2016-06-05T02:45:15.358Z,14.79
2016-06-05T02:46:15.361Z,14.86
2016-06-05T02:47:15.364Z,14.9
2016-06-05T02:48:15.383Z,14.92
2016-06-05T02:49:15.369Z,14.94
2016-06-05T02:50:15.372Z,14.94
2016-06-05T02:51:15.219Z,14.94
2016-06-05T02:52:15.628Z,14.9
2016-06-05T02:53:15.365Z,14.86
2016-06-05T02:54:15.367Z,14.93
2016-06-05T02:55:15.371Z,14.96
2016-06-05T02:56:15.373Z,14.92
2016-06-05T02:57:15.375Z,14.97
2016-06-05T02:58:15.222Z,14.97
2016-06-05T02:59:15.381Z,14.97
2016-06-05T03:00:15.367Z,14.93
2016-06-05T03:01:15.386Z,14.97
2016-06-05T03:02:15.373Z,14.89
2016-06-05T03:03:15.376Z,14.9
2016-06-05T03:04:15.378Z,14.81
2016-06-05T03:05:15.381Z,14.9
2016-06-05T03:06:15.383Z,14.89
2016-06-05T03:07:15.386Z,14.92
2016-06-05T03:08:15.373Z,14.92
2016-06-05T03:09:15.375Z,14.79
2016-06-05T03:10:15.395Z,14.81
2016-06-05T03:11:15.382Z,14.82
2016-06-05T03:12:15.400Z,14.82
2016-06-05T03:13:15.247Z,14.77
2016-06-05T03:14:15.374Z,14.85
2016-06-05T03:15:15.392Z,14.79
2016-06-05T03:16:15.395Z,14.79
2016-06-05T03:17:15.382Z,14.87
2016-06-05T03:18:15.385Z,14.77
2016-06-05T03:19:15.230Z,14.89
2016-06-05T03:20:15.390Z,14.87
2016-06-05T03:21:15.393Z,14.9
2016-06-05T03:22:15.395Z,14.78
2016-06-05T03:23:15.398Z,14.86
2016-06-05T03:24:15.401Z,14.82
2016-06-05T03:25:15.388Z,14.89
2016-06-05T03:26:15.391Z,14.82
2016-06-05T03:27:15.393Z,14.78
2016-06-05T03:28:15.412Z,14.81
2016-06-05T03:29:15.399Z,14.81
2016-06-05T03:30:15.385Z,14.82
2016-06-05T03:31:15.388Z,14.81
2016-06-05T03:32:15.407Z,14.85
2016-06-05T03:33:15.393Z,14.85
2016-06-05T03:34:15.396Z,14.86
2016-06-05T03:35:15.415Z,14.82
2016-06-05T03:36:15.418Z,14.86
2016-06-05T03:37:15.404Z,14.82
2016-06-05T03:38:15.392Z,14.85
2016-06-05T03:39:15.395Z,14.89
2016-06-05T03:40:15.397Z,14.89
2016-06-05T03:41:15.244Z,14.79
2016-06-05T03:42:15.417Z,14.86
2016-06-05T03:43:15.406Z,14.79
2016-06-05T03:44:15.423Z,14.79
2016-06-05T03:45:15.410Z,14.79
2016-06-05T03:46:15.397Z,14.78
2016-06-05T03:47:15.416Z,14.81
2016-06-05T03:48:15.419Z,14.93
2016-06-05T03:49:15.406Z,14.82
2016-06-05T03:50:15.424Z,14.87
2016-06-05T03:51:15.411Z,14.81
2016-06-05T03:52:15.414Z,14.92
2016-06-05T03:53:15.432Z,14.89
2016-06-05T03:54:15.419Z,14.89
2016-06-05T03:55:15.407Z,14.89
2016-06-05T03:56:15.409Z,14.93
2016-06-05T03:57:15.427Z,15
2016-06-05T03:58:15.867Z,14.93
2016-06-05T03:59:15.417Z,15.02
2016-06-05T04:00:15.420Z,14.97
2016-06-05T04:01:15.423Z,15.05
2016-06-05T04:02:15.269Z,14.99
2016-06-05T04:03:15.412Z,15.04
2016-06-05T04:04:15.274Z,15.07
2016-06-05T04:05:15.418Z,15.1
2016-06-05T04:06:15.436Z,15.08
2016-06-05T04:07:15.423Z,15.18
2016-06-05T04:08:15.581Z,15.08
2016-06-05T04:09:15.428Z,15.07
2016-06-05T04:10:15.415Z,15.25
2016-06-05T04:11:15.434Z,15.18
2016-06-05T04:12:15.452Z,15.22
2016-06-05T04:13:15.533Z,15.25
2016-06-05T04:14:15.426Z,15.41
2016-06-05T04:15:15.429Z,15.33
2016-06-05T04:16:15.431Z,15.36
2016-06-05T04:17:15.441Z,15.35
2016-06-05T04:18:15.471Z,15.35
2016-06-05T04:19:15.517Z,15.35
2016-06-05T04:20:15.532Z,15.3
2016-06-05T04:21:15.562Z,15.45
2016-06-05T04:22:15.573Z,15.43
2016-06-05T04:23:15.585Z,15.51
2016-06-05T04:24:15.598Z,15.44
2016-06-05T04:25:15.595Z,15.48
2016-06-05T04:26:15.624Z,15.5
2016-06-05T04:27:15.635Z,15.39
2016-06-05T04:28:15.704Z,15.45
2016-06-05T04:29:15.773Z,15.47
2016-06-05T04:30:15.639Z,15.48
2016-06-05T04:31:15.645Z,15.48
2016-06-05T04:32:15.651Z,15.5
2016-06-05T04:33:15.654Z,15.47
2016-06-05T04:34:15.659Z,15.54
2016-06-05T04:35:15.662Z,15.59
2016-06-05T04:36:15.666Z,15.57
2016-06-05T04:37:15.685Z,15.57
2016-06-05T04:38:15.673Z,15.6
2016-06-05T04:39:15.659Z,15.65
2016-06-05T04:40:15.663Z,15.59
2016-06-05T04:41:15.510Z,15.62
2016-06-05T04:42:15.669Z,15.59
2016-06-05T04:43:15.720Z,15.66
2016-06-05T04:44:15.676Z,15.6
2016-06-05T04:45:15.678Z,15.62
2016-06-05T04:46:15.667Z,15.59
2016-06-05T04:47:15.669Z,15.59
2016-06-05T04:48:15.672Z,15.57
2016-06-05T04:49:15.675Z,15.59
2016-06-05T04:50:15.677Z,15.54
2016-06-05T04:51:15.680Z,15.59
2016-06-05T04:52:15.667Z,15.59
2016-06-05T04:53:15.670Z,15.52
2016-06-05T04:54:15.672Z,15.57
2016-06-05T04:55:15.691Z,15.55
2016-06-05T04:56:15.693Z,15.54
2016-06-05T04:57:15.525Z,15.55
2016-06-05T04:58:16.230Z,15.51
2016-06-05T04:59:15.686Z,15.52
2016-06-05T05:00:15.688Z,15.44
2016-06-05T05:01:15.676Z,15.44
2016-06-05T05:02:15.679Z,15.45
2016-06-05T05:03:15.681Z,15.48
2016-06-05T05:04:15.527Z,15.55
2016-06-05T05:05:15.687Z,15.48
2016-06-05T05:06:15.690Z,15.44
2016-06-05T05:07:15.692Z,15.52
2016-06-05T05:08:15.695Z,15.44
2016-06-05T05:09:15.698Z,15.48
2016-06-05T05:10:15.685Z,15.48
2016-06-05T05:11:15.687Z,15.36
2016-06-05T05:12:15.689Z,15.47
2016-06-05T05:13:16.130Z,15.5
2016-06-05T05:14:15.695Z,15.44
2016-06-05T05:15:15.698Z,15.55
2016-06-05T05:16:15.700Z,15.55
2016-06-05T05:17:15.703Z,15.55
2016-06-05T05:18:15.706Z,15.6
2016-06-05T05:19:15.692Z,15.7
2016-06-05T05:20:15.695Z,15.73
2016-06-05T05:21:15.698Z,15.7
2016-06-05T05:22:15.701Z,15.73
2016-06-05T05:23:15.704Z,15.76
2016-06-05T05:24:15.706Z,15.76
2016-06-05T05:25:15.709Z,15.8
2016-06-05T05:26:15.712Z,15.88
2016-06-05T05:27:15.699Z,15.88
2016-06-05T05:28:15.717Z,15.84
2016-06-05T05:29:15.704Z,16.02
2016-06-05T05:30:15.707Z,15.99
2016-06-05T05:31:15.710Z,16.08
2016-06-05T05:32:15.713Z,16.12
2016-06-05T05:33:15.715Z,16.1
2016-06-05T05:34:15.718Z,16.08
2016-06-05T05:35:15.704Z,16.18
2016-06-05T05:36:15.707Z,16.24
2016-06-05T05:37:15.710Z,16.24
2016-06-05T05:38:15.713Z,16.31
2016-06-05T05:39:15.715Z,16.31
2016-06-05T05:40:15.749Z,16.34
2016-06-05T05:41:15.721Z,16.4
2016-06-05T05:42:15.724Z,16.5
2016-06-05T05:43:15.742Z,16.51
2016-06-05T05:44:15.728Z,16.61
2016-06-05T05:45:15.716Z,16.58
2016-06-05T05:46:15.718Z,16.65
2016-06-05T05:47:15.737Z,16.77
2016-06-05T05:48:15.723Z,16.91
2016-06-05T05:49:15.726Z,17.09
2016-06-05T05:50:15.729Z,17.12
2016-06-05T05:51:15.732Z,17.39
2016-06-05T05:52:15.734Z,17.59
2016-06-05T05:53:15.737Z,17.71
2016-06-05T05:54:15.725Z,17.97
2016-06-05T05:55:15.742Z,17.97
2016-06-05T05:56:15.730Z,18.13
2016-06-05T05:57:15.733Z,18.3
2016-06-05T05:58:15.736Z,18.34
2016-06-05T05:59:15.738Z,18.45
2016-06-05T06:00:16.163Z,18.55
2016-06-05T06:01:15.744Z,18.6
2016-06-05T06:02:15.746Z,18.73
2016-06-05T06:03:15.749Z,18.68
2016-06-05T06:04:15.736Z,18.73
2016-06-05T06:05:15.738Z,18.82
2016-06-05T06:06:15.741Z,18.79
2016-06-05T06:07:15.587Z,18.85
2016-06-05T06:08:15.652Z,18.91
2016-06-05T06:09:15.749Z,18.96
2016-06-05T06:10:15.751Z,19.05
2016-06-05T06:11:15.754Z,19.01
2016-06-05T06:12:15.757Z,19.01
2016-06-05T06:13:15.448Z,19.04
2016-06-05T06:14:15.762Z,19.07
2016-06-05T06:15:15.593Z,19.04
2016-06-05T06:16:15.753Z,18.94
2016-06-05T06:17:15.614Z,18.91
2016-06-05T06:18:15.758Z,18.88
2016-06-05T06:19:15.761Z,18.88
2016-06-05T06:20:15.764Z,18.79
2016-06-05T06:21:15.609Z,18.85
2016-06-05T06:22:15.769Z,18.78
2016-06-05T06:23:15.771Z,18.71
2016-06-05T06:24:15.759Z,18.64
2016-06-05T06:25:15.777Z,18.64
2016-06-05T06:26:15.779Z,18.64
2016-06-05T06:27:15.766Z,18.71
2016-06-05T06:28:16.410Z,18.74
2016-06-05T06:29:15.771Z,18.66
2016-06-05T06:30:15.774Z,18.63
2016-06-05T06:31:15.621Z,18.55
2016-06-05T06:32:15.780Z,18.51
2016-06-05T06:33:15.782Z,18.48
2016-06-05T06:34:15.785Z,18.42
2016-06-05T06:35:15.788Z,18.42
2016-06-05T06:36:15.774Z,18.42
2016-06-05T06:37:15.793Z,18.43
2016-06-05T06:38:15.780Z,18.45
2016-06-05T06:39:15.799Z,18.43
2016-06-05T06:40:15.801Z,18.41
2016-06-05T06:41:15.788Z,18.42
2016-06-05T06:42:15.807Z,18.43
2016-06-05T06:43:16.778Z,18.45
2016-06-05T06:44:15.781Z,18.53
2016-06-05T06:45:15.799Z,18.53
2016-06-05T06:46:15.801Z,18.63
2016-06-05T06:47:15.790Z,18.7
2016-06-05T06:48:15.792Z,18.67
2016-06-05T06:49:15.794Z,18.81
2016-06-05T06:50:15.797Z,18.76
2016-06-05T06:51:15.815Z,18.82
2016-06-05T06:52:15.818Z,18.78
2016-06-05T06:53:15.805Z,18.82
2016-06-05T06:54:15.808Z,18.85
2016-06-05T06:55:15.810Z,18.96
2016-06-05T06:56:15.813Z,18.82
2016-06-05T06:57:15.816Z,18.85
2016-06-05T06:58:16.319Z,18.83
2016-06-05T06:59:15.821Z,18.86
2016-06-05T07:00:15.824Z,18.89
2016-06-05T07:01:15.827Z,18.94
2016-06-05T07:02:15.813Z,18.91
2016-06-05T07:03:15.832Z,19.04
2016-06-05T07:04:15.835Z,18.97
2016-06-05T07:05:15.838Z,18.92
2016-06-05T07:06:15.825Z,19.01
2016-06-05T07:07:15.827Z,19.08
2016-06-05T07:08:15.830Z,19.11
2016-06-05T07:09:15.833Z,19.07
2016-06-05T07:10:15.851Z,19.17
2016-06-05T07:11:15.837Z,19.16
2016-06-05T07:12:15.840Z,19.2
2016-06-05T07:13:16.016Z,19.27
2016-06-05T07:14:15.846Z,19.37
2016-06-05T07:15:15.833Z,19.38
2016-06-05T07:16:15.835Z,19.35
2016-06-05T07:17:15.837Z,19.48
2016-06-05T07:18:15.841Z,19.52
2016-06-05T07:19:15.844Z,19.52
2016-06-05T07:20:15.846Z,19.55
2016-06-05T07:21:15.848Z,19.59
2016-06-05T07:22:15.867Z,19.6
2016-06-05T07:23:15.870Z,19.7
2016-06-05T07:24:15.857Z,19.9
2016-06-05T07:25:15.703Z,19.92
2016-06-05T07:26:15.862Z,20.07
2016-06-05T07:27:15.865Z,20.21
2016-06-05T07:28:16.525Z,20.32
2016-06-05T07:29:15.870Z,20.58
2016-06-05T07:30:15.873Z,20.71
2016-06-05T07:31:15.861Z,20.74
2016-06-05T07:32:15.863Z,20.83
2016-06-05T07:33:15.881Z,20.96
2016-06-05T07:34:15.869Z,21.03
2016-06-05T07:35:15.715Z,21.03
2016-06-05T07:36:15.874Z,20.95
2016-06-05T07:37:15.876Z,20.88
2016-06-05T07:38:15.911Z,20.83
2016-06-05T07:39:15.882Z,20.88
2016-06-05T07:40:15.729Z,20.85
2016-06-05T07:41:15.887Z,20.8
2016-06-05T07:42:15.890Z,20.86
2016-06-05T07:43:15.893Z,20.88
2016-06-05T07:44:16.098Z,20.82
2016-06-05T07:45:15.898Z,20.83
2016-06-05T07:46:15.901Z,20.85
2016-06-05T07:47:15.888Z,20.88
2016-06-05T07:48:15.906Z,21.05
2016-06-05T07:49:15.909Z,21.07
2016-06-05T07:50:15.912Z,21.1
2016-06-05T07:51:15.898Z,21.28
2016-06-05T07:52:15.901Z,21.45
2016-06-05T07:53:15.920Z,21.5
2016-06-05T07:54:15.906Z,21.53
2016-06-05T07:55:15.909Z,21.66
2016-06-05T07:56:15.912Z,21.6
2016-06-05T07:57:15.914Z,21.63
2016-06-05T07:58:15.934Z,21.72
2016-06-05T07:59:15.920Z,21.83
2016-06-05T08:00:15.766Z,21.92
2016-06-05T08:01:15.926Z,21.91
2016-06-05T08:02:15.928Z,21.94
2016-06-05T08:03:15.930Z,21.84
2016-06-05T08:04:15.933Z,21.69
2016-06-05T08:05:15.936Z,21.66
2016-06-05T08:06:15.939Z,21.63
2016-06-05T08:07:15.941Z,21.47
2016-06-05T08:08:15.991Z,21.28
2016-06-05T08:09:15.947Z,21.22
2016-06-05T08:10:15.793Z,21.11
2016-06-05T08:11:15.937Z,21.13
2016-06-05T08:12:15.940Z,21.04
2016-06-05T08:13:16.271Z,20.85
2016-06-05T08:14:15.945Z,20.75
2016-06-05T08:15:15.962Z,20.7
2016-06-05T08:16:15.950Z,20.59
2016-06-05T08:17:15.953Z,20.6
2016-06-05T08:18:15.956Z,20.48
2016-06-05T08:19:15.958Z,20.52
2016-06-05T08:20:15.961Z,20.42
2016-06-05T08:21:15.979Z,20.3
2016-06-05T08:22:15.966Z,20.33
2016-06-05T08:23:15.985Z,20.24
2016-06-05T08:24:15.972Z,20.21
2016-06-05T08:25:15.975Z,20.1
2016-06-05T08:26:15.992Z,20.15
2016-06-05T08:27:15.980Z,20.08
2016-06-05T08:28:15.733Z,20.07
2016-06-05T08:29:15.986Z,20.11
2016-06-05T08:30:15.988Z,20.15
2016-06-05T08:31:15.991Z,20.21
2016-06-05T08:32:15.994Z,20.19
2016-06-05T08:33:15.997Z,20.32
2016-06-05T08:34:15.999Z,20.44
2016-06-05T08:35:15.861Z,20.48
2016-06-05T08:36:16.004Z,20.58
2016-06-05T08:37:16.007Z,20.63
2016-06-05T08:38:16.009Z,20.7
2016-06-05T08:39:16.012Z,20.66
2016-06-05T08:40:15.999Z,20.66
2016-06-05T08:41:16.018Z,20.66
2016-06-05T08:42:15.864Z,20.68
2016-06-05T08:43:17.226Z,20.74
2016-06-05T08:44:16.026Z,20.7
2016-06-05T08:45:16.029Z,20.73
2016-06-05T08:46:16.031Z,20.73
2016-06-05T08:47:16.034Z,20.55
2016-06-05T08:48:16.021Z,20.55
2016-06-05T08:49:16.023Z,20.53
2016-06-05T08:50:15.885Z,20.59
2016-06-05T08:51:16.029Z,20.5
2016-06-05T08:52:16.047Z,20.56
2016-06-05T08:53:16.050Z,20.55
2016-06-05T08:54:16.036Z,20.53
2016-06-05T08:55:16.039Z,20.73
2016-06-05T08:56:16.042Z,20.75
2016-06-05T08:57:16.045Z,20.73
2016-06-05T08:58:16.438Z,20.78
2016-06-05T08:59:16.066Z,20.77
2016-06-05T09:00:16.069Z,20.83
2016-06-05T09:01:16.056Z,20.74
2016-06-05T09:02:16.058Z,20.75
2016-06-05T09:03:16.061Z,20.66
2016-06-05T09:04:16.064Z,20.67
2016-06-05T09:05:16.067Z,20.6
2016-06-05T09:06:16.053Z,20.56
2016-06-05T09:07:16.072Z,20.55
2016-06-05T09:08:16.075Z,20.68
2016-06-05T09:09:16.077Z,20.8
2016-06-05T09:10:16.080Z,20.9
2016-06-05T09:11:16.082Z,21.14
2016-06-05T09:12:16.085Z,21.3
2016-06-05T09:13:16.119Z,21.6
2016-06-05T09:14:16.090Z,21.66
2016-06-05T09:15:16.093Z,21.89
2016-06-05T09:16:16.096Z,22.14
2016-06-05T09:17:15.943Z,22.34
2016-06-05T09:18:16.117Z,22.38
2016-06-05T09:19:16.104Z,22.46
2016-06-05T09:20:16.091Z,22.47
2016-06-05T09:21:16.094Z,22.37
2016-06-05T09:22:16.096Z,22.4
2016-06-05T09:23:16.098Z,22.47
2016-06-05T09:24:16.117Z,22.47
2016-06-05T09:25:16.121Z,22.53
2016-06-05T09:26:16.123Z,22.53
2016-06-05T09:27:16.141Z,22.49
2016-06-05T09:28:16.581Z,22.58
2016-06-05T09:29:16.115Z,22.59
2016-06-05T09:30:16.118Z,22.74
2016-06-05T09:31:16.120Z,22.76
2016-06-05T09:32:16.139Z,22.8
2016-06-05T09:33:16.142Z,22.74
2016-06-05T09:34:16.145Z,22.73
2016-06-05T09:35:16.131Z,22.68
2016-06-05T09:36:16.133Z,22.65
2016-06-05T09:37:16.152Z,22.58
2016-06-05T09:38:16.139Z,22.55
2016-06-05T09:39:16.002Z,22.46
2016-06-05T09:40:16.160Z,22.41
2016-06-05T09:41:16.164Z,22.26
2016-06-05T09:42:16.166Z,22.28
2016-06-05T09:43:16.012Z,22.16
2016-06-05T09:44:16.155Z,22.06
2016-06-05T09:45:16.174Z,21.94
2016-06-05T09:46:16.161Z,21.96
2016-06-05T09:47:16.163Z,21.68
2016-06-05T09:48:16.182Z,21.38
2016-06-05T09:49:16.185Z,21.11
2016-06-05T09:50:16.204Z,20.78
2016-06-05T09:51:16.206Z,20.56
2016-06-05T09:52:16.177Z,20.42
2016-06-05T09:53:16.179Z,20.36
2016-06-05T09:54:16.182Z,20.24
2016-06-05T09:55:16.045Z,20.17
2016-06-05T09:56:16.204Z,20.14
2016-06-05T09:57:16.190Z,20.14
2016-06-05T09:58:16.396Z,19.97
2016-06-05T09:59:16.212Z,20.02
2016-06-05T10:00:16.215Z,20.04
2016-06-05T10:01:16.217Z,20.02
2016-06-05T10:02:16.220Z,20.08
2016-06-05T10:03:16.206Z,20.19
2016-06-05T10:04:16.209Z,20.11
2016-06-05T10:05:16.243Z,20.14
2016-06-05T10:06:16.215Z,20.08
2016-06-05T10:07:16.217Z,20.18
2016-06-05T10:08:16.267Z,20.1
2016-06-05T10:09:16.222Z,20.08
2016-06-05T10:10:16.241Z,20.1
2016-06-05T10:11:16.228Z,20.1
2016-06-05T10:12:16.231Z,20.1
2016-06-05T10:13:16.858Z,20.14
2016-06-05T10:14:16.235Z,20.14
2016-06-05T10:15:16.238Z,20.04
2016-06-05T10:16:16.241Z,20.11
2016-06-05T10:17:16.260Z,20.11
2016-06-05T10:18:16.262Z,20.07
2016-06-05T10:19:16.984Z,19.97
2016-06-05T10:20:16.268Z,20.04
2016-06-05T10:21:16.254Z,20.11
2016-06-05T10:22:16.257Z,20.12
2016-06-05T10:23:16.260Z,20.32
2016-06-05T10:24:16.263Z,20.48
2016-06-05T10:25:16.266Z,20.55
2016-06-05T10:26:16.284Z,20.7
2016-06-05T10:27:16.270Z,20.88
2016-06-05T10:28:17.524Z,21.03
2016-06-05T10:29:16.387Z,21.29
2016-06-05T10:30:16.295Z,21.44
2016-06-05T10:31:16.281Z,21.51
2016-06-05T10:32:16.284Z,21.65
2016-06-05T10:33:16.287Z,21.81
2016-06-05T10:34:16.290Z,22
2016-06-05T10:35:16.292Z,22.21
2016-06-05T10:36:16.295Z,22.43
2016-06-05T10:37:16.298Z,22.65
2016-06-05T10:38:16.316Z,23.01
2016-06-05T10:39:16.303Z,23.18
2016-06-05T10:40:16.306Z,23.34
2016-06-05T10:41:16.152Z,23.71
2016-06-05T10:42:16.311Z,23.99
2016-06-05T10:43:16.939Z,24.26
2016-06-05T10:44:16.316Z,24.5
2016-06-05T10:45:16.320Z,24.59
2016-06-05T10:46:16.322Z,24.88
2016-06-05T10:47:16.324Z,25.12
2016-06-05T10:48:16.327Z,25.31
2016-06-05T10:49:16.330Z,25.58
2016-06-05T10:50:16.333Z,25.76
2016-06-05T10:51:16.351Z,25.98
2016-06-05T10:52:16.354Z,26.08
2016-06-05T10:53:16.340Z,26.08
2016-06-05T10:54:16.360Z,26.18
2016-06-05T10:55:16.362Z,26.13
2016-06-05T10:56:16.365Z,25.95
2016-06-05T10:57:16.367Z,25.81
2016-06-05T10:58:17.026Z,25.62
2016-06-05T10:59:16.967Z,25.3
2016-06-05T11:00:16.375Z,25.09
2016-06-05T11:01:16.378Z,24.94
2016-06-05T11:02:16.381Z,24.66
2016-06-05T11:03:16.384Z,24.56
2016-06-05T11:04:16.387Z,24.63
2016-06-05T11:05:16.389Z,24.56
2016-06-05T11:06:16.235Z,24.62
2016-06-05T11:07:16.410Z,24.61
2016-06-05T11:08:16.397Z,24.61
2016-06-05T11:09:16.400Z,24.36
2016-06-05T11:10:16.434Z,24.11
2016-06-05T11:11:16.421Z,24.09
2016-06-05T11:12:16.408Z,24.16
2016-06-05T11:13:16.270Z,24.1
2016-06-05T11:14:16.430Z,24.06
2016-06-05T11:15:16.274Z,24.09
2016-06-05T11:16:16.434Z,24.13
2016-06-05T11:17:16.437Z,24.26
2016-06-05T11:18:16.440Z,24.28
2016-06-05T11:19:16.443Z,24.4
2016-06-05T11:20:16.429Z,24.59
2016-06-05T11:21:16.448Z,24.75
2016-06-05T11:22:16.450Z,24.94
2016-06-05T11:23:16.453Z,25.15
2016-06-05T11:24:16.471Z,25.25
2016-06-05T11:25:16.474Z,25.31
2016-06-05T11:26:16.477Z,25.37
2016-06-05T11:27:16.465Z,25.58
2016-06-05T11:28:17.107Z,25.43
2016-06-05T11:29:16.485Z,25.39
2016-06-05T11:30:16.472Z,25.36
2016-06-05T11:31:16.475Z,25.43
2016-06-05T11:32:16.478Z,25.62
2016-06-05T11:33:16.495Z,25.89
2016-06-05T11:34:16.498Z,26.18
2016-06-05T11:35:16.501Z,26.31
2016-06-05T11:36:16.503Z,26.27
2016-06-05T11:37:16.506Z,26.24
2016-06-05T11:38:16.369Z,26.15
2016-06-05T11:39:16.512Z,26.1
2016-06-05T11:40:16.530Z,25.86
2016-06-05T11:41:16.533Z,25.62
2016-06-05T11:42:16.535Z,25.7
2016-06-05T11:43:16.538Z,25.81
2016-06-05T11:44:16.760Z,25.68
2016-06-05T11:45:16.544Z,25.59
2016-06-05T11:46:16.546Z,25.62
2016-06-05T11:47:16.393Z,25.73
2016-06-05T11:48:16.552Z,25.83
2016-06-05T11:49:16.569Z,25.83
2016-06-05T11:50:16.557Z,25.92
2016-06-05T11:51:16.559Z,25.96
2016-06-05T11:52:16.577Z,26.1
2016-06-05T11:53:16.581Z,25.98
2016-06-05T11:54:16.583Z,25.86
2016-06-05T11:55:16.585Z,25.83
2016-06-05T11:56:16.588Z,25.88
2016-06-05T11:57:16.607Z,25.92
2016-06-05T11:58:16.937Z,25.88
2016-06-05T11:59:16.612Z,25.76
2016-06-05T12:00:16.599Z,25.77
2016-06-05T12:01:16.617Z,25.71
2016-06-05T12:02:16.620Z,25.74
2016-06-05T12:03:16.623Z,25.74
2016-06-05T12:04:16.625Z,25.77
2016-06-05T12:05:16.629Z,25.78
2016-06-05T12:06:16.632Z,25.67
2016-06-05T12:07:16.477Z,25.63
2016-06-05T12:08:16.637Z,25.68
2016-06-05T12:09:16.656Z,25.81
2016-06-05T12:10:16.499Z,25.83
2016-06-05T12:11:16.661Z,25.89
2016-06-05T12:12:16.664Z,25.92
2016-06-05T12:13:17.213Z,26.07
2016-06-05T12:14:16.668Z,25.99
2016-06-05T12:15:16.668Z,25.85
2016-06-05T12:16:16.672Z,25.76
2016-06-05T12:17:16.674Z,25.88
2016-06-05T12:18:16.691Z,25.8
2016-06-05T12:19:16.711Z,25.83
2016-06-05T12:20:16.697Z,25.89
2016-06-05T12:21:16.716Z,25.66
2016-06-05T12:22:16.703Z,25.63
2016-06-05T12:23:16.705Z,25.68
2016-06-05T12:24:16.708Z,25.73
2016-06-05T12:25:16.710Z,25.78
2016-06-05T12:26:16.714Z,25.98
2016-06-05T12:27:16.731Z,26.07
2016-06-05T12:28:16.734Z,26.27
2016-06-05T12:29:16.737Z,26.27
2016-06-05T12:30:16.724Z,26.23
2016-06-05T12:31:16.742Z,26.16
2016-06-05T12:32:16.729Z,26.19
2016-06-05T12:33:16.748Z,25.98
2016-06-05T12:34:16.751Z,25.86
2016-06-05T12:35:16.770Z,25.55
2016-06-05T12:36:16.772Z,25.36
2016-06-05T12:37:16.758Z,25.21
2016-06-05T12:38:16.778Z,24.92
2016-06-05T12:39:16.780Z,24.79
2016-06-05T12:40:16.767Z,24.63
2016-06-05T12:41:16.769Z,24.46
2016-06-05T12:42:16.773Z,24.29
2016-06-05T12:43:17.025Z,24.14
2016-06-05T12:44:16.794Z,24.06
2016-06-05T12:45:16.797Z,24.01
2016-06-05T12:46:16.799Z,23.86
2016-06-05T12:47:16.645Z,23.77
2016-06-05T12:48:16.804Z,23.74
2016-06-05T12:49:16.807Z,23.59
2016-06-05T12:50:16.825Z,23.52
2016-06-05T12:51:16.812Z,23.47
2016-06-05T12:52:16.815Z,23.33
2016-06-05T12:53:16.833Z,23.21
2016-06-05T12:54:16.836Z,23.08
2016-06-05T12:55:16.823Z,23.01